Time;durP1;ratioP1;P1;durP2;ratioP2;P2;SDS_P1;SDS_P2;PMS_P1;PMS_P2;Temp;Humidity;BMP_temperature;BMP_pressure;BME280_temperature;BME280_humidity;BME280_pressure;Samples;Min_cycle;Max_cycle;Signal;HPM_P1;HPM_P2
2022/03/12 00:00:36;;;;;;;;;4.67;3.00;;;;;9.60;76.60;100965.88;5024334;28;45531;-65
2022/03/12 00:03:02;;;;;;;;;3.33;3.00;;;;;9.54;76.59;100966.44;5023827;28;45592;-65
2022/03/12 00:05:29;;;;;;;;;4.33;4.33;;;;;9.55;76.80;100968.16;5020630;28;45383;-65
2022/03/12 00:07:54;;;;;;;;;2.00;2.00;;;;;9.55;76.95;100973.56;5024301;28;45306;-65
2022/03/12 00:10:22;;;;;;;;;3.67;3.33;;;;;9.46;77.11;100977.09;5023132;28;45337;-65
2022/03/12 00:12:48;;;;;;;;;7.00;5.00;;;;;9.48;77.18;100980.53;5021655;28;47458;-65
2022/03/12 00:15:14;;;;;;;;;4.00;2.67;;;;;9.46;77.25;100975.25;5018430;28;45269;-65
2022/03/12 00:17:43;;;;;;;;;2.33;2.00;;;;;9.50;76.98;100981.25;5024761;28;45359;-65
2022/03/12 00:20:12;;;;;;;;;3.00;3.00;;;;;9.49;77.03;100993.13;5018698;28;45465;-65
2022/03/12 00:22:41;;;;;;;;;4.00;3.67;;;;;9.47;76.87;100989.66;5023374;28;45531;-65
2022/03/12 00:25:09;;;;;;;;;3.33;2.33;;;;;9.49;76.78;100993.13;5021306;28;45415;-65
2022/03/12 00:27:34;;;;;;;;;4.33;3.33;;;;;9.36;76.94;100985.19;5020755;28;45312;-65
2022/03/12 00:30:00;;;;;;;;;5.33;2.00;;;;;9.42;76.91;101000.06;5018380;28;45315;-65
2022/03/12 00:32:26;;;;;;;;;8.00;4.00;;;;;9.50;76.60;101000.22;5019236;28;47126;-66
2022/03/12 00:34:52;;;;;;;;;4.00;4.00;;;;;9.57;76.70;101004.97;5019291;28;45430;-65
2022/03/12 00:37:19;;;;;;;;;5.67;4.00;;;;;9.64;76.42;101005.31;5021331;28;45288;-67
2022/03/12 00:39:47;;;;;;;;;4.00;3.00;;;;;9.70;76.32;101016.47;5020891;28;45449;-66
2022/03/12 00:42:13;;;;;;;;;4.33;3.00;;;;;9.78;76.07;101007.66;5036688;28;46789;-65
2022/03/12 00:44:38;;;;;;;;;3.00;3.00;;;;;9.85;75.88;101016.97;5019017;28;45588;-65
2022/03/12 00:47:04;;;;;;;;;1.67;1.67;;;;;9.87;75.55;101012.25;5021744;28;45379;-65
2022/03/12 00:49:29;;;;;;;;;5.00;4.00;;;;;9.90;75.23;101027.41;5022808;28;45402;-65
2022/03/12 00:51:55;;;;;;;;;4.00;3.00;;;;;9.93;75.20;101028.00;5024031;28;45450;-65
2022/03/12 00:54:21;;;;;;;;;3.67;3.00;;;;;9.95;75.24;101036.84;5017820;28;45448;-65
2022/03/12 00:56:46;;;;;;;;;3.67;3.67;;;;;9.90;75.46;101033.69;5019806;28;45497;-65
2022/03/12 00:59:12;;;;;;;;;5.33;3.67;;;;;9.91;75.37;101035.41;5018110;28;45525;-65
2022/03/12 01:01:37;;;;;;;;;5.33;4.00;;;;;9.92;75.21;101031.72;5022156;28;47238;-65
2022/03/12 01:04:03;;;;;;;;;7.67;3.67;;;;;9.87;75.26;101041.22;5019823;28;45516;-65
2022/03/12 01:06:28;;;;;;;;;4.00;4.00;;;;;9.91;75.29;101042.69;5021523;28;45400;-66
2022/03/12 01:08:54;;;;;;;;;5.67;5.67;;;;;9.96;75.41;101059.41;5016769;28;45371;-65
2022/03/12 01:11:19;;;;;;;;;4.00;4.00;;;;;9.87;75.55;101054.78;5022625;28;48080;-65
2022/03/12 01:13:44;;;;;;;;;8.00;5.00;;;;;9.82;75.06;101063.38;5019119;28;45406;-65
2022/03/12 01:16:10;;;;;;;;;4.67;2.00;;;;;9.75;75.10;101064.91;5021794;28;45416;-65
2022/03/12 01:18:39;;;;;;;;;6.00;3.67;;;;;9.73;75.36;101064.16;5020862;28;45574;-65
2022/03/12 01:21:10;;;;;;;;;4.33;4.00;;;;;9.79;75.11;101063.63;5023667;28;45688;-65
2022/03/12 01:23:36;;;;;;;;;3.00;3.00;;;;;9.79;75.23;101063.63;5020028;28;45454;-65
2022/03/12 01:26:01;;;;;;;;;3.00;3.00;;;;;9.68;75.67;101044.72;5036507;28;45231;-65
2022/03/12 01:28:26;;;;;;;;;8.33;4.00;;;;;9.75;74.84;101073.03;5020118;28;45356;-65
2022/03/12 01:30:54;;;;;;;;;7.33;5.00;;;;;9.77;74.76;101068.34;5020079;28;45319;-65
2022/03/12 01:33:20;;;;;;;;;1.00;1.00;;;;;9.80;74.71;101065.34;5021775;28;45498;-65
2022/03/12 01:35:45;;;;;;;;;5.00;5.00;;;;;9.69;74.89;101069.03;5018805;28;45470;-65
2022/03/12 01:38:10;;;;;;;;;3.00;3.00;;;;;9.64;74.85;101065.00;5012570;28;45352;-65
2022/03/12 01:40:36;;;;;;;;;4.00;4.00;;;;;9.61;74.96;101054.41;5035370;28;47448;-65
2022/03/12 01:43:04;;;;;;;;;4.33;3.00;;;;;9.59;75.21;101057.25;5022327;28;45501;-65
2022/03/12 01:45:29;;;;;;;;;3.00;3.00;;;;;9.53;75.37;101048.78;5021549;28;45375;-65
2022/03/12 01:47:57;;;;;;;;;2.67;1.67;;;;;9.50;75.28;101065.31;5023090;28;45469;-65
2022/03/12 01:50:26;;;;;;;;;3.00;3.00;;;;;9.41;75.58;101047.16;5028959;28;48481;-65
2022/03/12 01:52:57;;;;;;;;;4.33;2.67;;;;;9.44;75.75;101055.00;5023239;28;45398;-65
2022/03/12 01:55:22;;;;;;;;;7.00;5.33;;;;;9.41;75.85;101050.72;5014907;28;45618;-66
2022/03/12 01:57:47;;;;;;;;;4.00;3.00;;;;;9.46;75.98;101066.59;5012180;28;45784;-66
2022/03/12 02:00:24;;;;;;;;;7.67;6.33;;;;;9.46;76.00;101066.59;5016681;28;45548;-66
2022/03/12 02:02:53;;;;;;;;;1.33;1.33;;;;;9.45;76.04;101064.88;5023218;28;45446;-65
2022/03/12 02:05:19;;;;;;;;;3.00;3.00;;;;;9.48;76.05;101070.03;5016052;28;45466;-66
2022/03/12 02:07:46;;;;;;;;;2.00;2.00;;;;;9.56;75.94;101083.78;5023785;28;45276;-65
2022/03/12 02:10:20;;;;;;;;;4.33;2.00;;;;;9.59;75.95;101078.94;5016419;28;46480;-65
2022/03/12 02:12:45;;;;;;;;;4.33;3.00;;;;;9.55;75.98;101087.50;5022392;28;45338;-65
2022/03/12 02:15:11;;;;;;;;;4.67;4.67;;;;;9.64;75.47;101084.81;5014510;28;45571;-65
2022/03/12 02:17:39;;;;;;;;;5.33;4.00;;;;;9.72;75.90;101089.56;5020937;28;45519;-65
2022/03/12 02:20:08;;;;;;;;;8.00;4.00;;;;;9.77;75.67;101081.91;5015781;28;45639;-65
2022/03/12 02:22:33;;;;;;;;;6.00;5.33;;;;;9.83;75.25;101096.78;5018709;28;45352;-66
2022/03/12 02:24:58;;;;;;;;;3.33;3.33;;;;;9.72;75.67;101068.72;5015929;28;45541;-66
2022/03/12 02:27:25;;;;;;;;;5.00;5.00;;;;;9.81;75.45;101091.50;5015748;28;45438;-66
2022/03/12 02:29:52;;;;;;;;;3.67;3.67;;;;;9.78;75.40;101083.63;5016014;28;45426;-66
2022/03/12 02:32:18;;;;;;;;;4.00;4.00;;;;;9.75;75.07;101094.75;5017461;28;45529;-66
2022/03/12 02:34:49;;;;;;;;;3.00;3.00;;;;;9.79;75.23;101082.63;5017199;28;45256;-66
2022/03/12 02:37:25;;;;;;;;;5.33;3.00;;;;;9.74;74.94;101095.72;5019330;28;45528;-66
2022/03/12 02:39:50;;;;;;;;;3.00;2.33;;;;;9.72;74.67;101089.56;5018469;28;45466;-66
2022/03/12 02:42:16;;;;;;;;;3.00;3.00;;;;;9.58;74.76;101082.66;5020042;28;45364;-66
2022/03/12 02:44:42;;;;;;;;;8.00;4.00;;;;;9.63;74.92;101084.97;5020429;28;45566;-66
2022/03/12 02:47:16;;;;;;;;;3.00;3.00;;;;;9.58;75.06;101084.50;5021715;28;45434;-65
2022/03/12 02:49:48;;;;;;;;;3.67;3.67;;;;;9.62;74.89;101094.09;5014254;28;46332;-66
2022/03/12 02:52:15;;;;;;;;;3.00;3.00;;;;;9.62;75.06;101084.13;5021686;28;45445;-66
2022/03/12 02:54:41;;;;;;;;;6.33;4.00;;;;;9.62;74.47;101084.13;5015232;28;45522;-66
2022/03/12 02:57:08;;;;;;;;;8.00;6.33;;;;;9.52;74.67;101082.31;5021752;28;45236;-66
2022/03/12 02:59:33;;;;;;;;;4.00;4.00;;;;;9.62;74.53;101077.84;5017163;28;47013;-66
2022/03/12 03:02:03;;;;;;;;;1.67;1.67;;;;;9.44;74.36;101085.69;5021083;28;45233;-66
2022/03/12 03:04:35;;;;;;;;;3.67;3.67;;;;;9.42;75.02;101085.00;5020806;28;45334;-66
2022/03/12 03:07:05;;;;;;;;;4.67;3.00;;;;;9.41;75.10;101093.25;5005414;28;45567;-65
2022/03/12 03:09:31;;;;;;;;;3.33;3.00;;;;;9.47;75.22;101098.16;5010181;28;45438;-66
2022/03/12 03:11:57;;;;;;;;;4.33;3.00;;;;;9.44;74.73;101101.97;5021056;28;45426;-66
2022/03/12 03:14:26;;;;;;;;;4.67;4.00;;;;;9.45;75.26;101103.69;5016233;28;45413;-66
2022/03/12 03:16:56;;;;;;;;;4.33;4.33;;;;;9.48;75.07;101099.88;5021218;28;45331;-66
2022/03/12 03:19:26;;;;;;;;;2.33;2.00;;;;;9.50;75.04;101101.44;5013212;28;45457;-66
2022/03/12 03:21:55;;;;;;;;;3.00;3.00;;;;;9.51;74.83;101100.44;5022266;28;45420;-68
2022/03/12 03:24:21;;;;;;;;;5.00;4.00;;;;;9.53;74.83;101098.47;5016028;28;45232;-66
2022/03/12 03:26:47;;;;;;;;;3.67;3.67;;;;;9.52;74.83;101109.44;5022660;28;45489;-67
2022/03/12 03:29:13;;;;;;;;;3.00;3.00;;;;;9.51;74.81;101105.00;5015415;28;45498;-66
2022/03/12 03:31:39;;;;;;;;;6.00;4.33;;;;;9.50;74.83;101112.28;5017452;28;45299;-67
2022/03/12 03:34:04;;;;;;;;;3.00;3.00;;;;;9.47;74.90;101107.16;5020196;28;45381;-66
2022/03/12 03:36:30;;;;;;;;;4.00;4.00;;;;;9.49;74.95;101104.31;5019301;28;45484;-66
2022/03/12 03:38:55;;;;;;;;;8.00;3.00;;;;;9.47;74.47;101107.16;5020038;28;47075;-66
2022/03/12 03:41:20;;;;;;;;;2.67;2.67;;;;;9.44;74.42;101114.69;5020149;28;45177;-66
2022/03/12 03:43:48;;;;;;;;;3.33;3.33;;;;;9.44;74.68;101106.53;5019393;28;45422;-67
2022/03/12 03:46:19;;;;;;;;;4.33;3.00;;;;;9.45;74.70;101094.69;5021104;28;45511;-66
2022/03/12 03:48:50;;;;;;;;;3.00;3.00;;;;;9.40;74.41;101097.81;5019053;28;46484;-66
2022/03/12 03:51:16;;;;;;;;;2.00;2.00;;;;;9.46;74.68;101116.28;5020632;28;45386;-66
2022/03/12 03:53:41;;;;;;;;;8.00;4.00;;;;;9.43;74.98;101115.66;5019741;28;45826;-66
2022/03/12 03:56:07;;;;;;;;;3.00;3.00;;;;;9.40;75.21;101124.09;5014912;28;45557;-66
2022/03/12 03:58:34;;;;;;;;;8.33;7.00;;;;;9.34;75.13;101112.78;5022072;28;45705;-66
2022/03/12 04:01:04;;;;;;;;;9.33;5.00;;;;;9.37;74.90;101114.34;5034213;28;45195;-66
2022/03/12 04:03:33;;;;;;;;;4.00;4.00;;;;;9.31;74.94;101109.44;5020683;28;45505;-66
2022/03/12 04:06:04;;;;;;;;;4.00;4.00;;;;;9.32;75.18;101122.03;5022311;28;45436;-66
2022/03/12 04:08:31;;;;;;;;;5.33;5.33;;;;;9.27;75.51;101113.44;5022356;28;45389;-66
2022/03/12 04:10:57;;;;;;;;;7.33;5.33;;;;;9.26;75.49;101119.84;5021670;28;45539;-66
2022/03/12 04:13:23;;;;;;;;;4.67;3.00;;;;;9.25;75.38;101118.13;5023184;28;45319;-66
2022/03/12 04:15:51;;;;;;;;;4.00;4.00;;;;;9.25;75.68;101132.53;5021118;28;45285;-66
2022/03/12 04:18:21;;;;;;;;;4.00;3.33;;;;;9.23;75.64;101126.38;5021078;28;47129;-66
2022/03/12 04:20:47;;;;;;;;;6.00;3.33;;;;;9.24;75.59;101128.09;5023369;28;45489;-66
2022/03/12 04:23:19;;;;;;;;;5.33;3.00;;;;;9.25;75.74;101128.97;5023054;28;45327;-66
2022/03/12 04:25:52;;;;;;;;;4.67;4.67;;;;;9.26;75.42;101126.13;5020843;28;45402;-66
2022/03/12 04:28:19;;;;;;;;;3.00;3.00;;;;;9.27;75.00;101132.41;5022589;28;45479;-67
2022/03/12 04:30:44;;;;;;;;;4.00;3.67;;;;;9.18;75.30;101128.63;5016589;28;45469;-66
2022/03/12 04:33:11;;;;;;;;;2.00;2.00;;;;;9.11;75.59;101126.56;5022347;28;45403;-66
2022/03/12 04:35:38;;;;;;;;;5.33;3.33;;;;;9.05;75.68;101130.66;5023741;28;45433;-66
2022/03/12 04:38:04;;;;;;;;;5.67;4.00;;;;;9.06;75.17;101128.81;5023306;28;45426;-66
2022/03/12 04:40:30;;;;;;;;;1.33;0.67;;;;;9.05;75.44;101136.09;5020071;28;45394;-67
2022/03/12 04:42:55;;;;;;;;;4.00;2.67;;;;;8.97;75.97;101131.31;5024336;28;45648;-67
2022/03/12 04:45:24;;;;;;;;;4.67;4.67;;;;;8.87;75.84;101118.63;5036842;28;45434;-66
2022/03/12 04:47:50;;;;;;;;;7.67;3.67;;;;;8.99;75.69;101131.16;5024308;28;45721;-66
2022/03/12 04:50:18;;;;;;;;;5.00;5.00;;;;;8.97;76.09;101135.88;5014546;28;45469;-66
2022/03/12 04:52:45;;;;;;;;;7.67;4.00;;;;;8.95;76.41;101135.97;5024858;28;45338;-66
2022/03/12 04:55:13;;;;;;;;;4.00;4.00;;;;;8.95;75.73;101143.25;5016049;28;45268;-66
2022/03/12 04:57:40;;;;;;;;;4.67;4.67;;;;;8.95;76.47;101138.69;5023576;28;46837;-66
2022/03/12 05:00:09;;;;;;;;;3.67;3.67;;;;;8.97;76.34;101144.84;5021316;28;45406;-66
2022/03/12 05:02:34;;;;;;;;;5.00;3.33;;;;;9.03;75.97;101143.47;5036219;28;45340;-66
2022/03/12 05:05:00;;;;;;;;;3.33;3.33;;;;;9.01;76.31;101156.28;5015661;28;45365;-66
2022/03/12 05:07:26;;;;;;;;;7.67;4.33;;;;;9.01;76.49;101164.41;5024046;28;45331;-66
2022/03/12 05:09:52;;;;;;;;;7.00;3.00;;;;;9.05;75.70;101155.06;5019587;28;45606;-66
2022/03/12 05:12:18;;;;;;;;;7.67;5.33;;;;;9.09;75.26;101167.34;5022728;28;45474;-66
2022/03/12 05:14:48;;;;;;;;;5.67;3.67;;;;;9.12;75.23;101169.81;5018163;28;45474;-66
2022/03/12 05:17:14;;;;;;;;;2.00;2.00;;;;;9.14;75.41;101178.66;5023819;28;46205;-66
2022/03/12 05:19:39;;;;;;;;;6.67;4.00;;;;;9.12;74.99;101175.22;5014986;28;45495;-66
2022/03/12 05:22:07;;;;;;;;;2.00;2.00;;;;;9.10;74.92;101174.50;5024219;28;45189;-66
2022/03/12 05:24:33;;;;;;;;;3.00;3.00;;;;;9.11;75.27;101176.22;5020548;28;45453;-66
2022/03/12 05:26:59;;;;;;;;;3.00;2.00;;;;;9.17;75.45;101175.69;5023748;28;45634;-66
2022/03/12 05:29:25;;;;;;;;;9.00;4.00;;;;;9.14;75.58;101170.53;5017666;28;45391;-66
2022/03/12 05:31:52;;;;;;;;;5.00;3.67;;;;;9.16;75.13;101173.97;5018624;28;45413;-66
2022/03/12 05:34:20;;;;;;;;;4.00;4.00;;;;;9.17;75.24;101178.41;5018209;28;45518;-66
2022/03/12 05:36:46;;;;;;;;;7.33;3.67;;;;;9.21;75.00;101181.72;5021110;28;46593;-67
2022/03/12 05:39:11;;;;;;;;;5.00;5.00;;;;;9.27;74.68;101184.78;5020391;28;45733;-67
2022/03/12 05:41:40;;;;;;;;;8.67;5.33;;;;;9.29;75.06;101180.06;5021545;28;45390;-67
2022/03/12 05:44:06;;;;;;;;;7.33;6.33;;;;;9.33;74.90;101170.72;5020014;28;45434;-67
2022/03/12 05:46:31;;;;;;;;;6.67;3.67;;;;;9.38;74.24;101181.16;5021786;28;45498;-64
2022/03/12 05:48:57;;;;;;;;;5.33;3.33;;;;;9.41;73.92;101182.75;5018221;28;45777;-67
2022/03/12 05:51:22;;;;;;;;;6.33;3.00;;;;;9.35;73.99;101190.41;5022119;28;45502;-66
2022/03/12 05:53:48;;;;;;;;;5.67;5.67;;;;;9.33;74.13;101186.97;5020410;28;45536;-67
2022/03/12 05:56:14;;;;;;;;;7.33;4.67;;;;;9.35;74.01;101190.41;5018754;28;47637;-67
2022/03/12 05:58:40;;;;;;;;;7.33;3.67;;;;;9.31;74.62;101188.94;5018572;28;45868;-67
2022/03/12 06:01:07;;;;;;;;;4.33;4.33;;;;;9.25;73.95;101189.47;5020594;28;45249;-67
2022/03/12 06:03:33;;;;;;;;;5.00;5.00;;;;;9.35;74.31;101197.69;5020115;28;45387;-65
2022/03/12 06:05:59;;;;;;;;;3.33;3.33;;;;;9.36;74.05;101197.53;5020109;28;48458;-67
2022/03/12 06:08:28;;;;;;;;;8.33;6.33;;;;;9.23;74.46;101205.00;5019645;28;45489;-67
2022/03/12 06:10:55;;;;;;;;;5.00;5.00;;;;;9.15;74.66;101199.34;5020360;28;45422;-68
2022/03/12 06:13:30;;;;;;;;;15.00;13.33;;;;;9.16;74.57;101200.22;5021170;28;45549;-67
2022/03/12 06:16:00;;;;;;;;;9.00;9.00;;;;;9.15;75.07;101193.94;5021460;28;47535;-66
2022/03/12 06:18:32;;;;;;;;;3.00;3.00;;;;;9.16;74.62;101192.09;5008077;28;45872;-66
2022/03/12 06:20:58;;;;;;;;;7.67;6.33;;;;;9.14;74.80;101199.47;5017451;28;45398;-66
2022/03/12 06:23:23;;;;;;;;;10.67;5.00;;;;;9.16;74.51;101209.22;5021308;28;45506;-66
2022/03/12 06:25:49;;;;;;;;;7.00;6.33;;;;;9.15;74.91;101210.19;5021413;28;46290;-65
2022/03/12 06:28:14;;;;;;;;;3.00;3.00;;;;;9.17;74.92;101224.50;5020642;28;45450;-67
2022/03/12 06:30:42;;;;;;;;;3.00;3.00;;;;;9.21;74.86;101225.94;5029097;28;45444;-66
2022/03/12 06:33:08;;;;;;;;;4.00;4.00;;;;;9.23;75.02;101231.25;5021195;28;45427;-66
2022/03/12 06:35:34;;;;;;;;;7.33;5.00;;;;;9.14;73.99;101227.44;5014997;28;48154;-66
2022/03/12 06:38:00;;;;;;;;;8.00;8.00;;;;;9.15;74.85;101229.16;5020046;28;45427;-66
2022/03/12 06:40:28;;;;;;;;;8.33;8.33;;;;;9.19;74.25;101237.94;5019113;28;45505;-66
2022/03/12 06:42:59;;;;;;;;;7.33;5.00;;;;;9.12;74.20;101236.72;5037771;28;45536;-66
2022/03/12 06:45:25;;;;;;;;;9.00;8.00;;;;;9.18;74.20;101239.78;5010224;28;47551;-66
2022/03/12 06:47:51;;;;;;;;;5.67;5.67;;;;;9.15;74.12;101245.44;5022551;28;45650;-66
2022/03/12 06:50:22;;;;;;;;;9.00;8.00;;;;;9.05;75.15;101251.75;5012825;28;45493;-66
2022/03/12 06:52:50;;;;;;;;;4.67;4.67;;;;;9.10;74.53;101242.25;5036052;28;45634;-67
2022/03/12 06:55:18;;;;;;;;;4.00;4.00;;;;;9.14;73.88;101257.28;5018827;28;47129;-66
2022/03/12 06:57:44;;;;;;;;;6.00;3.00;;;;;9.18;73.88;101258.75;5018040;28;45359;-66
2022/03/12 07:00:16;;;;;;;;;6.67;6.67;;;;;9.16;73.38;101271.56;5012325;28;45479;-66
2022/03/12 07:02:42;;;;;;;;;8.00;6.33;;;;;8.98;73.90;101275.81;5022711;28;45486;-66
2022/03/12 07:05:08;;;;;;;;;7.33;4.67;;;;;9.06;74.08;101284.13;5019746;28;46596;-66
2022/03/12 07:07:34;;;;;;;;;4.00;4.00;;;;;9.10;73.86;101295.59;5014181;28;45441;-66
2022/03/12 07:09:59;;;;;;;;;2.00;2.00;;;;;9.16;73.82;101293.25;5016176;28;45467;-66
2022/03/12 07:12:25;;;;;;;;;2.33;2.33;;;;;9.18;73.14;101290.44;5023143;28;45313;-66
2022/03/12 07:14:50;;;;;;;;;4.33;4.33;;;;;9.13;73.87;101295.38;5016042;28;46723;-65
2022/03/12 07:17:16;;;;;;;;;4.67;3.00;;;;;9.13;73.36;101303.50;5022210;28;45311;-66
2022/03/12 07:19:41;;;;;;;;;4.67;3.33;;;;;9.03;73.70;101302.53;5015402;28;45422;-66
2022/03/12 07:22:07;;;;;;;;;7.00;4.67;;;;;9.08;73.63;101292.16;5018483;28;45486;-66
2022/03/12 07:24:33;;;;;;;;;4.00;3.00;;;;;9.11;73.23;101295.50;5015632;28;45452;-66
2022/03/12 07:26:58;;;;;;;;;4.00;4.00;;;;;9.14;73.33;101292.50;5018257;28;45181;-66
2022/03/12 07:29:24;;;;;;;;;3.00;3.00;;;;;9.19;73.09;101297.56;5016372;28;45623;-66
2022/03/12 07:31:49;;;;;;;;;4.00;4.00;;;;;9.29;73.28;101299.38;5014550;28;45398;-66
2022/03/12 07:34:15;;;;;;;;;5.33;3.33;;;;;9.34;72.92;101308.03;5023671;28;47165;-66
2022/03/12 07:36:41;;;;;;;;;6.00;4.33;;;;;9.40;72.26;101308.50;5021207;28;45429;-66
2022/03/12 07:39:06;;;;;;;;;4.33;3.00;;;;;9.41;72.73;101307.50;5022015;28;45334;-67
2022/03/12 07:41:32;;;;;;;;;4.00;4.00;;;;;9.47;72.65;101307.00;5025670;28;45410;-66
2022/03/12 07:43:58;;;;;;;;;3.67;3.67;;;;;9.48;72.56;101312.28;5023481;28;46506;-65
2022/03/12 07:46:24;;;;;;;;;5.00;5.00;;;;;9.49;72.74;101307.72;5017603;28;45392;-65
2022/03/12 07:48:49;;;;;;;;;8.67;5.00;;;;;9.62;72.59;101320.13;5020966;28;45529;-65
2022/03/12 07:51:15;;;;;;;;;2.67;2.67;;;;;9.66;72.57;101328.88;5019579;28;45348;-65
2022/03/12 07:53:41;;;;;;;;;4.67;3.33;;;;;9.67;72.30;101314.31;5021213;28;48207;-65
2022/03/12 07:56:08;;;;;;;;;4.00;3.00;;;;;9.76;72.02;101316.25;5024001;28;45351;-66
2022/03/12 07:58:35;;;;;;;;;9.00;4.33;;;;;9.79;71.65;101315.97;5021839;28;45367;-67
2022/03/12 08:01:03;;;;;;;;;7.67;6.00;;;;;9.81;71.47;101311.31;5020628;28;45367;-66
2022/03/12 08:03:29;;;;;;;;;6.33;3.67;;;;;9.87;71.60;101313.50;5022930;28;46195;-66
2022/03/12 08:05:55;;;;;;;;;8.33;4.33;;;;;9.91;71.35;101328.53;5019385;28;45444;-66
2022/03/12 08:08:20;;;;;;;;;4.33;4.33;;;;;9.99;71.10;101327.88;5023051;28;45335;-66
2022/03/12 08:13:30;;;;;;;;;3.67;3.67;;;;;10.03;71.18;101359.19;5020930;28;45768;-66
2022/03/12 08:15:57;;;;;;;;;7.67;5.00;;;;;10.03;71.01;101354.63;5035523;28;45904;-66
2022/03/12 08:18:23;;;;;;;;;10.67;5.67;;;;;10.08;70.65;101359.69;5016290;28;45211;-66
2022/03/12 08:20:49;;;;;;;;;3.67;3.00;;;;;10.10;70.68;101352.25;5021966;28;45237;-66
2022/03/12 08:23:15;;;;;;;;;5.00;5.00;;;;;10.14;70.74;101356.44;5021122;28;46479;-66
2022/03/12 08:25:41;;;;;;;;;3.67;3.67;;;;;10.00;71.07;101363.06;5024281;28;45279;-66
2022/03/12 08:28:06;;;;;;;;;10.33;6.67;;;;;9.98;70.91;101362.31;5023125;28;45310;-66
2022/03/12 08:30:32;;;;;;;;;5.67;5.67;;;;;10.04;71.18;101372.66;5017988;28;45227;-65
2022/03/12 08:32:58;;;;;;;;;7.33;5.00;;;;;10.13;71.03;101384.59;5023179;28;46934;-66
2022/03/12 08:35:24;;;;;;;;;6.33;6.33;;;;;10.14;70.62;101394.47;5021050;28;45370;-65
2022/03/12 08:37:50;;;;;;;;;7.67;5.00;;;;;10.16;71.04;101376.16;5025112;28;45312;-65
2022/03/12 08:40:16;;;;;;;;;7.33;6.00;;;;;10.22;70.43;101393.84;5021145;28;45442;-65
2022/03/12 08:42:41;;;;;;;;;3.67;3.00;;;;;10.22;70.19;101386.56;5023377;28;47474;-68
2022/03/12 08:45:08;;;;;;;;;4.00;4.00;;;;;10.33;70.52;101382.91;5015918;28;45726;-67
2022/03/12 08:47:33;;;;;;;;;5.00;5.00;;;;;10.41;70.28;101385.84;5017683;28;45383;-67
2022/03/12 08:49:59;;;;;;;;;3.67;3.67;;;;;10.44;70.04;101385.59;5014964;28;45584;-67
2022/03/12 08:52:25;;;;;;;;;7.00;4.67;;;;;10.46;70.46;101375.44;5023840;28;46617;-68
2022/03/12 08:54:51;;;;;;;;;6.00;6.00;;;;;10.42;69.51;101377.56;5015701;28;45387;-67
2022/03/12 08:57:17;;;;;;;;;6.33;6.33;;;;;10.51;69.94;101370.47;5024240;28;45474;-67
2022/03/12 08:59:42;;;;;;;;;5.33;5.00;;;;;10.42;69.38;101371.28;5016493;28;45976;-67
2022/03/12 09:02:09;;;;;;;;;9.00;6.00;;;;;10.58;69.26;101373.53;5024025;28;45530;-67
2022/03/12 09:04:35;;;;;;;;;7.00;6.33;;;;;10.52;69.51;101375.75;5017872;28;45394;-67
2022/03/12 09:07:00;;;;;;;;;5.33;4.67;;;;;10.60;69.31;101375.09;5024276;28;45506;-67
2022/03/12 09:09:26;;;;;;;;;8.67;7.33;;;;;10.64;69.31;101376.56;5018406;28;45295;-67
2022/03/12 09:11:51;;;;;;;;;6.67;6.67;;;;;10.66;69.79;101365.56;5022735;28;48103;-67
2022/03/12 09:14:18;;;;;;;;;6.67;6.67;;;;;10.74;69.61;101371.19;5017864;28;45217;-67
2022/03/12 09:16:43;;;;;;;;;4.00;4.00;;;;;10.87;69.77;101372.69;5022685;28;45460;-67
2022/03/12 09:19:09;;;;;;;;;5.00;5.00;;;;;10.73;68.10;101370.34;5017775;28;45478;-67
2022/03/12 09:21:35;;;;;;;;;6.67;3.67;;;;;10.89;68.86;101373.41;5023921;28;45570;-67
2022/03/12 09:24:03;;;;;;;;;10.33;10.33;;;;;10.90;68.45;101356.09;5018117;28;45349;-67
2022/03/12 09:26:28;;;;;;;;;9.00;6.00;;;;;10.95;68.95;101363.00;5015194;28;45473;-67
2022/03/12 09:28:54;;;;;;;;;9.00;5.67;;;;;11.03;68.23;101360.47;5019203;28;45477;-67
2022/03/12 09:31:20;;;;;;;;;4.67;3.67;;;;;11.08;68.40;101366.34;5020347;28;45529;-67
2022/03/12 09:33:46;;;;;;;;;4.00;4.00;;;;;11.17;68.28;101368.25;5020108;28;45459;-67
2022/03/12 09:36:11;;;;;;;;;3.33;3.33;;;;;11.23;68.24;101367.69;5021892;28;45409;-67
2022/03/12 09:38:37;;;;;;;;;9.67;6.00;;;;;11.26;68.15;101367.41;5022053;28;45626;-68
2022/03/12 09:41:03;;;;;;;;;7.33;5.33;;;;;11.23;68.55;101375.84;5021637;28;46831;-67
2022/03/12 09:43:28;;;;;;;;;4.33;4.33;;;;;11.27;68.45;101371.84;5021774;28;45679;-67
2022/03/12 09:45:54;;;;;;;;;8.00;5.67;;;;;11.36;68.33;101373.75;5015238;28;45617;-67
2022/03/12 09:48:20;;;;;;;;;6.00;6.00;;;;;11.37;67.82;101374.63;5021887;28;45667;-68
2022/03/12 09:50:45;;;;;;;;;9.00;7.33;;;;;11.31;68.03;101359.72;5016130;28;45514;-67
2022/03/12 09:53:10;;;;;;;;;6.67;5.67;;;;;11.33;67.63;101358.56;5022362;28;45298;-67
2022/03/12 09:55:36;;;;;;;;;8.00;8.00;;;;;11.31;68.39;101360.56;5018983;28;45320;-67
2022/03/12 09:58:01;;;;;;;;;9.00;5.50;;;;;11.45;68.47;101356.59;5023461;28;45442;-67
2022/03/12 10:00:27;;;;;;;;;6.33;6.33;;;;;11.62;67.74;101358.63;5015759;28;46506;-67
2022/03/12 10:02:52;;;;;;;;;5.00;5.00;;;;;11.71;67.18;101359.66;5023085;28;45481;-67
2022/03/12 10:05:18;;;;;;;;;4.67;4.67;;;;;11.64;67.04;101362.09;5016697;28;45397;-67
2022/03/12 10:07:43;;;;;;;;;12.00;10.67;;;;;11.70;67.35;101361.50;5035717;28;45398;-67
2022/03/12 10:10:17;;;;;;;;;7.00;5.33;;;;;11.92;67.06;101368.59;5020286;28;46921;-67
2022/03/12 10:12:47;;;;;;;;;1.67;1.67;;;;;12.02;66.85;101360.44;5017356;28;45411;-67
2022/03/12 10:15:14;;;;;;;;;4.00;4.00;;;;;12.17;66.52;101359.00;5020453;28;45378;-67
2022/03/12 10:17:41;;;;;;;;;5.00;4.00;;;;;12.33;66.02;101364.75;5018064;28;45322;-67
2022/03/12 10:20:10;;;;;;;;;4.00;4.00;;;;;12.46;65.75;101359.84;5016394;28;45441;-66
2022/03/12 10:22:36;;;;;;;;;5.00;4.00;;;;;12.58;65.44;101363.25;5017212;28;45536;-67
2022/03/12 10:25:01;;;;;;;;;3.33;3.33;;;;;12.66;64.61;101359.78;5017534;28;45395;-67
2022/03/12 10:27:26;;;;;;;;;3.67;3.67;;;;;12.52;64.39;101352.06;5019973;28;45527;-67
2022/03/12 10:29:52;;;;;;;;;7.00;7.00;;;;;12.61;64.37;101352.06;5019256;28;46704;-67
2022/03/12 10:32:23;;;;;;;;;6.67;5.67;;;;;12.38;63.45;101339.78;5020004;28;45683;-67
2022/03/12 10:34:52;;;;;;;;;4.67;4.00;;;;;12.32;64.31;101349.41;5020316;28;45451;-67
2022/03/12 10:37:20;;;;;;;;;3.00;3.00;;;;;12.27;64.39;101343.50;5036266;28;45516;-67
2022/03/12 10:39:46;;;;;;;;;5.33;4.00;;;;;12.18;64.87;101344.38;5019889;28;46459;-67
2022/03/12 10:42:13;;;;;;;;;3.67;3.33;;;;;12.45;64.90;101338.19;5020629;28;45513;-67
2022/03/12 10:44:41;;;;;;;;;5.00;5.00;;;;;12.70;63.85;101340.28;5019921;28;45375;-67
2022/03/12 10:47:19;;;;;;;;;4.00;4.00;;;;;12.92;63.75;101349.97;5022440;28;45380;-67
2022/03/12 10:50:06;;;;;;;;;5.33;5.33;;;;;13.02;63.47;101350.78;5015069;28;46354;-67
2022/03/12 10:52:34;;;;;;;;;6.33;6.33;;;;;13.09;63.67;101343.72;5010473;28;45415;-68
2022/03/12 10:55:11;;;;;;;;;7.67;5.67;;;;;13.05;62.97;101336.84;5018792;28;45478;-66
2022/03/12 10:57:36;;;;;;;;;8.33;3.33;;;;;13.03;63.07;101341.59;5012671;28;45612;-66
2022/03/12 11:00:09;;;;;;;;;6.00;5.00;;;;;13.05;62.42;101334.13;5020279;28;45490;-65
2022/03/12 11:02:34;;;;;;;;;5.00;5.00;;;;;12.85;62.55;101337.94;5022180;28;45381;-67
2022/03/12 11:05:04;;;;;;;;;4.67;4.67;;;;;12.81;63.50;101339.22;5016166;28;45982;-66
2022/03/12 11:07:30;;;;;;;;;7.00;7.00;;;;;12.90;64.01;101334.75;5024339;28;45680;-66
2022/03/12 11:09:56;;;;;;;;;7.00;7.00;;;;;12.99;64.17;101334.72;5019344;28;45474;-66
2022/03/12 11:12:29;;;;;;;;;9.00;9.00;;;;;13.06;63.33;101329.53;5025985;28;45422;-66
2022/03/12 11:15:14;;;;;;;;;9.33;7.00;;;;;13.16;63.54;101331.22;5019467;28;45354;-68
2022/03/12 11:17:50;;;;;;;;;16.00;11.00;;;;;13.29;63.14;101319.13;5024842;28;45304;-66
2022/03/12 11:20:28;;;;;;;;;8.00;6.00;;;;;13.17;62.55;101316.56;5022637;28;47229;-66
2022/03/12 11:23:12;;;;;;;;;7.00;6.00;;;;;13.02;63.04;101318.03;5023706;28;45599;-66
2022/03/12 11:26:00;;;;;;;;;12.00;7.67;;;;;13.07;62.82;101318.47;5021209;28;45366;-66
2022/03/12 11:28:29;;;;;;;;;9.33;7.67;;;;;13.17;63.38;101304.81;5022458;28;45519;-66
2022/03/12 11:30:55;;;;;;;;;12.00;9.00;;;;;13.32;62.71;101308.75;5020033;28;46197;-68
2022/03/12 11:33:22;;;;;;;;;14.33;9.67;;;;;13.38;62.71;101293.63;5022959;28;45326;-66